createdAt,value
2022-07-25T00:01:01.507Z,64.70
2022-07-25T00:03:29.918Z,65.17
2022-07-25T00:05:57.511Z,64.99
2022-07-25T00:08:25.020Z,64.76
2022-07-25T00:10:52.003Z,64.57
2022-07-25T00:13:20.502Z,64.35
2022-07-25T00:15:47.564Z,63.94
2022-07-25T00:18:14.869Z,63.80
2022-07-25T00:20:42.321Z,63.64
2022-07-25T00:23:09.504Z,63.37
2022-07-25T00:25:36.517Z,63.57
2022-07-25T00:28:04.252Z,63.05
2022-07-25T00:30:31.856Z,62.89
2022-07-25T00:33:00.873Z,62.67
2022-07-25T00:35:27.844Z,62.54
2022-07-25T00:37:55.618Z,62.99
2022-07-25T00:40:23.152Z,62.88
2022-07-25T00:42:51.444Z,63.07
2022-07-25T00:45:18.659Z,63.51
2022-07-25T00:47:45.914Z,64.31
2022-07-25T00:50:12.901Z,64.50
2022-07-25T00:52:42.178Z,65.17
2022-07-25T00:55:09.336Z,65.59
2022-07-25T00:57:36.605Z,65.96
2022-07-25T01:00:08.196Z,65.99
2022-07-25T01:02:35.697Z,66.01
2022-07-25T01:05:04.367Z,65.85
2022-07-25T01:07:32.624Z,65.35
2022-07-25T01:10:00.205Z,65.06
2022-07-25T01:12:27.684Z,65.68
2022-07-25T01:14:56.804Z,65.61
2022-07-25T01:17:24.615Z,65.52
2022-07-25T01:19:53.347Z,65.54
2022-07-25T01:22:21.392Z,65.68
2022-07-25T01:24:48.338Z,65.77
2022-07-25T01:27:17.337Z,65.48
2022-07-25T01:29:45.259Z,65.48
2022-07-25T01:32:13.010Z,65.60
2022-07-25T01:34:39.950Z,65.37
2022-07-25T01:37:07.471Z,65.28
2022-07-25T01:39:34.409Z,65.30
2022-07-25T01:42:01.695Z,65.69
2022-07-25T01:44:29.028Z,65.82
2022-07-25T01:46:56.250Z,66.33
2022-07-25T01:49:23.200Z,66.28
2022-07-25T01:51:50.858Z,66.64
2022-07-25T01:54:17.782Z,67.04
2022-07-25T01:56:46.942Z,66.92
2022-07-25T01:59:17.712Z,67.12
2022-07-25T02:01:45.029Z,67.21
2022-07-25T02:04:12.895Z,67.61
2022-07-25T02:06:42.133Z,67.31
2022-07-25T02:09:09.889Z,67.41
2022-07-25T02:11:37.280Z,66.96
2022-07-25T02:14:05.305Z,66.96
2022-07-25T02:16:32.584Z,66.96
2022-07-25T02:18:59.873Z,67.15
2022-07-25T02:21:27.693Z,67.34
2022-07-25T02:23:55.132Z,67.34
2022-07-25T02:26:22.104Z,67.70
2022-07-25T02:28:50.653Z,68.26
2022-07-25T02:31:17.855Z,68.99
2022-07-25T02:33:46.236Z,69.13
2022-07-25T02:36:13.868Z,69.59
2022-07-25T02:38:41.207Z,70.31
2022-07-25T02:41:08.430Z,70.55
2022-07-25T02:43:36.451Z,71.13
2022-07-25T02:46:03.719Z,71.02
2022-07-25T02:48:31.077Z,71.06
2022-07-25T02:50:58.787Z,71.39
2022-07-25T02:53:54.384Z,72.08
2022-07-25T02:56:14.229Z,71.26
2022-07-25T02:58:41.969Z,70.86
2022-07-25T03:01:09.301Z,70.55
2022-07-25T03:03:36.426Z,70.43
2022-07-25T03:06:04.421Z,70.53
2022-07-25T03:08:31.373Z,70.33
2022-07-25T03:10:58.917Z,70.00
2022-07-25T03:13:26.678Z,69.87
2022-07-25T03:15:53.899Z,69.72
2022-07-25T03:18:20.882Z,69.46
2022-07-25T03:20:49.152Z,69.43
2022-07-25T03:23:16.092Z,70.09
2022-07-25T03:25:43.768Z,69.88
2022-07-25T03:28:10.917Z,69.58
2022-07-25T03:30:38.203Z,70.15
2022-07-25T03:33:05.149Z,69.79
2022-07-25T03:35:32.557Z,69.78
2022-07-25T03:38:02.287Z,69.85
2022-07-25T03:40:30.592Z,69.96
2022-07-25T03:42:58.047Z,69.60
2022-07-25T03:45:25.815Z,69.42
2022-07-25T03:47:54.705Z,69.13
2022-07-25T03:50:21.962Z,68.93
2022-07-25T03:52:48.938Z,68.81
2022-07-25T03:55:16.559Z,68.59
2022-07-25T03:57:43.496Z,68.56
2022-07-25T04:00:14.060Z,68.49
2022-07-25T04:02:41.970Z,68.43
2022-07-25T04:05:09.729Z,68.07
2022-07-25T04:07:38.235Z,67.84
2022-07-25T04:10:06.667Z,67.56
2022-07-25T04:12:34.629Z,67.24
2022-07-25T04:15:02.132Z,67.06
2022-07-25T04:17:29.430Z,66.37
2022-07-25T04:19:57.486Z,66.22
2022-07-25T04:22:25.209Z,65.77
2022-07-25T04:24:52.124Z,65.22
2022-07-25T04:27:20.020Z,64.98
2022-07-25T04:29:46.956Z,64.52
2022-07-25T04:32:15.057Z,64.20
2022-07-25T04:34:45.010Z,64.37
2022-07-25T04:37:12.473Z,63.83
2022-07-25T04:39:39.804Z,63.60
2022-07-25T04:42:07.259Z,63.71
2022-07-25T04:44:34.252Z,63.48
2022-07-25T04:47:04.071Z,63.12
2022-07-25T04:49:31.022Z,63.04
2022-07-25T04:51:58.232Z,62.72
2022-07-25T04:54:25.644Z,62.68
2022-07-25T04:56:52.889Z,62.44
2022-07-25T04:59:19.844Z,62.38
2022-07-25T05:01:49.124Z,61.68
2022-07-25T05:04:16.101Z,61.45
2022-07-25T05:06:43.334Z,61.40
2022-07-25T05:09:11.087Z,60.44
2022-07-25T05:11:41.462Z,60.41
2022-07-25T05:14:11.138Z,59.98
2022-07-25T05:16:38.147Z,59.74
2022-07-25T05:19:05.508Z,59.32
2022-07-25T05:21:33.647Z,59.20
2022-07-25T05:24:01.179Z,58.86
2022-07-25T05:26:28.164Z,58.69
2022-07-25T05:28:56.364Z,58.68
2022-07-25T05:31:23.382Z,58.69
2022-07-25T05:33:51.343Z,58.44
2022-07-25T05:36:18.542Z,58.48
2022-07-25T05:38:46.068Z,58.53
2022-07-25T05:41:13.936Z,58.38
2022-07-25T05:43:46.177Z,58.32
2022-07-25T05:46:15.396Z,58.46
2022-07-25T05:48:43.625Z,57.87
2022-07-25T05:51:12.624Z,57.69
2022-07-25T05:53:40.250Z,57.36
2022-07-25T05:56:07.690Z,57.14
2022-07-25T05:58:34.672Z,56.93
2022-07-25T06:01:04.267Z,56.83
2022-07-25T06:03:31.338Z,56.60
2022-07-25T06:05:58.636Z,56.35
2022-07-25T06:08:29.175Z,55.77
2022-07-25T06:10:58.171Z,55.53
2022-07-25T06:13:26.232Z,55.20
2022-07-25T06:15:55.810Z,55.06
2022-07-25T06:18:24.036Z,54.80
2022-07-25T06:20:51.622Z,54.06
2022-07-25T06:23:18.970Z,54.37
2022-07-25T06:25:50.614Z,54.42
2022-07-25T06:28:18.292Z,54.15
2022-07-25T06:30:46.781Z,53.93
2022-07-25T06:33:14.242Z,53.69
2022-07-25T06:35:41.604Z,53.27
2022-07-25T06:38:08.553Z,53.05
2022-07-25T06:40:36.357Z,52.42
2022-07-25T06:43:03.462Z,52.00
2022-07-25T06:45:30.896Z,51.89
2022-07-25T06:47:58.059Z,51.87
2022-07-25T06:50:25.599Z,51.68
2022-07-25T06:52:54.574Z,51.50
2022-07-25T06:55:22.445Z,50.94
2022-07-25T06:57:49.481Z,50.52
2022-07-25T07:00:17.206Z,50.59
2022-07-25T07:03:03.497Z,50.46
2022-07-25T07:05:33.670Z,50.07
2022-07-25T07:08:01.373Z,50.08
2022-07-25T07:10:29.297Z,49.44
2022-07-25T07:13:07.996Z,48.91
2022-07-25T07:15:37.132Z,49.09
2022-07-25T07:18:06.883Z,49.14
2022-07-25T07:20:34.273Z,49.14
2022-07-25T07:23:01.659Z,48.86
2022-07-25T07:25:30.663Z,48.44
2022-07-25T07:27:57.625Z,47.97
2022-07-25T07:30:37.640Z,47.87
2022-07-25T07:33:12.876Z,47.46
2022-07-25T07:35:40.729Z,47.00
2022-07-25T07:38:08.049Z,46.67
2022-07-25T07:40:35.011Z,46.20
2022-07-25T07:43:04.164Z,45.94
2022-07-25T07:45:31.398Z,45.33
2022-07-25T07:47:58.612Z,44.81
2022-07-25T07:50:27.854Z,44.38
2022-07-25T07:52:56.493Z,44.43
2022-07-25T07:55:43.129Z,44.01
2022-07-25T07:58:11.035Z,43.54
2022-07-25T08:00:39.587Z,43.75
2022-07-25T08:03:11.637Z,43.25
2022-07-25T08:05:44.617Z,42.32
2022-07-25T08:08:15.458Z,42.08
2022-07-25T08:10:47.695Z,40.92
2022-07-25T08:13:16.289Z,41.81
2022-07-25T08:15:45.348Z,41.50
2022-07-25T08:18:17.219Z,40.88
2022-07-25T08:20:49.052Z,40.50
2022-07-25T08:23:20.364Z,40.70
2022-07-25T08:25:48.439Z,40.47
2022-07-25T08:28:15.556Z,39.74
2022-07-25T08:30:43.524Z,39.48
2022-07-25T08:33:13.741Z,38.88
2022-07-25T08:35:47.652Z,38.76
2022-07-25T08:38:15.067Z,38.34
2022-07-25T08:40:42.055Z,38.42
2022-07-25T08:43:14.414Z,37.87
2022-07-25T08:45:54.606Z,37.67
2022-07-25T08:48:26.010Z,37.20
2022-07-25T08:50:54.917Z,37.22
2022-07-25T08:53:33.171Z,36.71
2022-07-25T08:56:10.400Z,36.50
2022-07-25T08:58:44.150Z,35.93
2022-07-25T09:01:13.964Z,36.00
2022-07-25T09:03:45.432Z,35.85
2022-07-25T09:06:21.893Z,35.37
2022-07-25T09:08:58.056Z,34.66
2022-07-25T09:11:37.806Z,34.29
2022-07-25T09:14:09.744Z,34.56
2022-07-25T09:16:44.347Z,34.71
2022-07-25T09:19:21.804Z,33.96
2022-07-25T09:22:02.199Z,33.84
2022-07-25T09:24:31.934Z,34.32
2022-07-25T09:27:02.503Z,34.31
2022-07-25T09:29:34.943Z,32.94
2022-07-25T09:32:13.731Z,34.11
2022-07-25T09:34:43.085Z,34.56
2022-07-25T09:37:12.635Z,34.38
2022-07-25T09:39:46.114Z,34.03
2022-07-25T09:42:22.079Z,33.67
2022-07-25T09:45:01.830Z,33.51
2022-07-25T09:47:31.618Z,33.88
2022-07-25T09:49:58.769Z,33.96
2022-07-25T09:52:26.412Z,33.81
2022-07-25T09:54:55.828Z,33.93
2022-07-25T09:57:25.864Z,33.75
2022-07-25T09:59:54.109Z,33.31
2022-07-25T10:02:46.160Z,32.72
2022-07-25T10:05:56.710Z,32.71
2022-07-25T10:08:25.551Z,32.95
2022-07-25T10:10:52.685Z,32.73
2022-07-25T10:13:32.053Z,32.44
2022-07-25T10:15:59.356Z,32.29
2022-07-25T10:18:29.119Z,31.50
2022-07-25T10:21:25.518Z,31.32
2022-07-25T10:24:00.260Z,31.26
2022-07-25T10:26:29.972Z,31.34
2022-07-25T10:28:58.405Z,31.05
2022-07-25T10:31:29.243Z,31.15
2022-07-25T10:33:59.707Z,30.88
2022-07-25T10:36:32.526Z,30.99
2022-07-25T10:39:02.470Z,30.52
2022-07-25T10:41:30.051Z,30.44
2022-07-25T10:44:01.278Z,30.80
2022-07-25T10:46:31.245Z,30.73
2022-07-25T10:49:03.490Z,30.69
2022-07-25T10:51:41.595Z,30.27
2022-07-25T10:54:18.859Z,29.34
2022-07-25T10:56:56.027Z,29.14
2022-07-25T10:59:29.156Z,29.55
2022-07-25T11:01:57.224Z,29.22
2022-07-25T11:04:24.372Z,28.94
2022-07-25T11:06:51.661Z,29.34
2022-07-25T11:09:29.407Z,29.21
2022-07-25T11:11:59.701Z,28.94
2022-07-25T11:14:42.991Z,28.22
2022-07-25T11:17:20.609Z,27.76
2022-07-25T11:20:01.614Z,27.79
2022-07-25T11:22:31.172Z,28.18
2022-07-25T11:24:59.714Z,28.43
2022-07-25T11:27:33.171Z,28.04
2022-07-25T11:30:07.771Z,27.50
2022-07-25T11:32:45.020Z,26.76
2022-07-25T11:35:15.278Z,26.58
2022-07-25T11:37:48.902Z,26.28
2022-07-25T11:40:16.690Z,25.59
2022-07-25T11:42:46.146Z,25.60
2022-07-25T11:45:32.046Z,25.53
2022-07-25T11:48:13.790Z,26.06
2022-07-25T11:50:45.526Z,25.65
2022-07-25T11:53:16.070Z,25.15
2022-07-25T11:55:46.523Z,25.05
2022-07-25T11:58:14.668Z,24.84
2022-07-25T12:00:50.136Z,24.03
2022-07-25T12:03:21.069Z,23.53
2022-07-25T12:05:49.881Z,23.61
2022-07-25T12:08:19.675Z,23.70
2022-07-25T12:10:49.282Z,24.20
2022-07-25T12:13:24.932Z,23.81
2022-07-25T12:15:52.124Z,24.45
2022-07-25T12:18:19.475Z,25.21
2022-07-25T12:20:47.766Z,25.34
2022-07-25T12:23:15.214Z,24.83
2022-07-25T12:25:46.280Z,24.17
2022-07-25T12:28:14.454Z,23.92
2022-07-25T12:30:44.457Z,23.48
2022-07-25T12:33:13.095Z,23.40
2022-07-25T12:35:44.895Z,22.11
2022-07-25T12:38:12.476Z,22.45
2022-07-25T12:40:39.415Z,21.88
2022-07-25T12:43:07.923Z,21.32
2022-07-25T12:45:34.978Z,21.52
2022-07-25T12:48:02.261Z,20.93
2022-07-25T12:50:30.223Z,20.50
2022-07-25T12:52:57.653Z,20.67
2022-07-25T12:55:24.883Z,20.39
2022-07-25T12:57:53.971Z,20.20
2022-07-25T13:00:23.235Z,20.15
2022-07-25T13:02:53.346Z,20.40
2022-07-25T13:05:21.292Z,19.71
2022-07-25T13:07:49.562Z,19.62
2022-07-25T13:10:19.176Z,19.59
2022-07-25T13:12:50.254Z,19.36
2022-07-25T13:15:21.137Z,18.80
2022-07-25T13:17:48.608Z,18.44
2022-07-25T13:20:15.869Z,18.62
2022-07-25T13:22:43.504Z,18.44
2022-07-25T13:25:10.731Z,18.33
2022-07-25T13:27:39.567Z,18.19
2022-07-25T13:30:08.223Z,17.55
2022-07-25T13:32:36.832Z,17.65
2022-07-25T13:35:04.751Z,17.88
2022-07-25T13:37:33.358Z,17.77
2022-07-25T13:40:00.579Z,17.71
2022-07-25T13:42:30.077Z,17.38
2022-07-25T13:44:57.628Z,17.18
2022-07-25T13:47:29.987Z,16.97
2022-07-25T13:49:58.541Z,16.84
2022-07-25T13:52:25.495Z,16.25
2022-07-25T13:54:52.759Z,16.18
2022-07-25T13:57:20.122Z,16.53
2022-07-25T13:59:47.440Z,16.39
2022-07-25T14:02:14.776Z,15.99
2022-07-25T14:04:42.615Z,15.61
2022-07-25T14:07:09.740Z,16.22
2022-07-25T14:09:38.695Z,16.09
2022-07-25T14:12:06.230Z,15.92
2022-07-25T14:14:33.901Z,16.26
2022-07-25T14:17:01.205Z,16.00
2022-07-25T14:19:28.634Z,16.32
2022-07-25T14:21:55.667Z,16.71
2022-07-25T14:24:25.529Z,17.00
2022-07-25T14:26:54.075Z,16.82
2022-07-25T14:29:27.214Z,17.47
2022-07-25T14:31:59.638Z,17.85
2022-07-25T14:34:26.687Z,17.77
2022-07-25T14:36:53.939Z,17.47
2022-07-25T14:39:21.357Z,17.65
2022-07-25T14:41:49.482Z,16.95
2022-07-25T14:44:16.542Z,16.81
2022-07-25T14:46:44.461Z,16.22
2022-07-25T14:49:15.650Z,15.37
2022-07-25T14:51:46.760Z,14.84
2022-07-25T14:54:14.820Z,14.81
2022-07-25T14:56:42.921Z,14.09
2022-07-25T14:59:11.207Z,14.71
2022-07-25T15:01:39.282Z,14.51
2022-07-25T15:04:06.647Z,15.31
2022-07-25T15:06:34.130Z,15.43
2022-07-25T15:09:01.503Z,14.96
2022-07-25T15:11:28.542Z,14.74
2022-07-25T15:13:56.200Z,14.18
2022-07-25T15:16:24.027Z,14.67
2022-07-25T15:19:15.253Z,14.46
2022-07-25T15:21:39.348Z,14.91
2022-07-25T15:24:06.774Z,15.42
2022-07-25T15:26:34.221Z,15.11
2022-07-25T15:29:01.809Z,15.17
2022-07-25T15:31:29.397Z,14.29
2022-07-25T15:33:56.500Z,14.09
2022-07-25T15:36:28.958Z,13.77
2022-07-25T15:38:57.522Z,13.38
2022-07-25T15:41:24.539Z,13.55
2022-07-25T15:43:52.320Z,14.41
2022-07-25T15:46:19.730Z,14.31
2022-07-25T15:48:47.057Z,14.69
2022-07-25T15:51:16.951Z,14.06
2022-07-25T15:53:46.355Z,13.81
2022-07-25T15:56:16.831Z,13.23
2022-07-25T15:58:44.837Z,13.36
2022-07-25T16:01:12.764Z,13.36
2022-07-25T16:03:40.180Z,13.45
2022-07-25T16:06:07.299Z,14.18
2022-07-25T16:08:36.290Z,15.25
2022-07-25T16:11:04.505Z,15.92
2022-07-25T16:13:31.998Z,15.59
2022-07-25T16:15:59.293Z,15.13
2022-07-25T16:18:27.071Z,15.19
2022-07-25T16:20:54.243Z,16.35
2022-07-25T16:23:24.513Z,16.62
2022-07-25T16:25:51.608Z,16.93
2022-07-25T16:28:19.434Z,16.51
2022-07-25T16:30:46.614Z,16.27
2022-07-25T16:33:14.237Z,16.13
2022-07-25T16:35:41.326Z,15.46
2022-07-25T16:38:10.068Z,15.70
2022-07-25T16:40:37.067Z,16.05
2022-07-25T16:43:04.756Z,15.67
2022-07-25T16:45:31.958Z,15.29
2022-07-25T16:47:59.364Z,15.37
2022-07-25T16:50:26.646Z,15.87
2022-07-25T16:52:58.322Z,16.14
2022-07-25T16:55:28.615Z,15.98
2022-07-25T16:57:56.270Z,15.77
2022-07-25T17:00:23.632Z,15.99
2022-07-25T17:02:51.246Z,16.18
2022-07-25T17:05:18.504Z,16.28
2022-07-25T17:07:47.047Z,16.04
2022-07-25T17:10:14.035Z,16.03
2022-07-25T17:12:41.307Z,16.00
2022-07-25T17:15:09.524Z,16.23
2022-07-25T17:17:36.890Z,16.29
2022-07-25T17:20:05.998Z,16.39
2022-07-25T17:22:33.976Z,16.95
2022-07-25T17:25:00.981Z,16.73
2022-07-25T17:27:30.363Z,17.39
2022-07-25T17:29:57.382Z,17.30
2022-07-25T17:32:29.707Z,17.64
2022-07-25T17:34:59.511Z,18.38
2022-07-25T17:37:27.845Z,19.14
2022-07-25T17:39:56.240Z,19.83
2022-07-25T17:42:24.334Z,20.64
2022-07-25T17:44:52.634Z,21.50
2022-07-25T17:47:19.768Z,22.22
2022-07-25T17:49:47.637Z,22.99
2022-07-25T17:52:16.064Z,23.38
2022-07-25T17:54:43.955Z,23.99
2022-07-25T17:57:11.588Z,24.26
2022-07-25T17:59:38.845Z,24.95
2022-07-25T18:02:06.557Z,25.13
2022-07-25T18:04:34.008Z,25.50
2022-07-25T18:07:01.087Z,26.02
2022-07-25T18:09:28.701Z,26.19
2022-07-25T18:11:55.726Z,26.75
2022-07-25T18:14:23.132Z,27.31
2022-07-25T18:16:50.369Z,27.78
2022-07-25T18:19:17.609Z,28.00
2022-07-25T18:21:46.644Z,28.45
2022-07-25T18:24:14.396Z,28.42
2022-07-25T18:26:41.392Z,28.45
2022-07-25T18:29:09.732Z,28.70
2022-07-25T18:31:37.708Z,29.29
2022-07-25T18:34:05.601Z,29.38
2022-07-25T18:36:34.443Z,29.48
2022-07-25T18:39:02.183Z,29.87
2022-07-25T18:41:30.223Z,30.13
2022-07-25T18:43:58.493Z,30.25
2022-07-25T18:46:25.849Z,30.36
2022-07-25T18:48:53.749Z,30.83
2022-07-25T18:51:21.373Z,30.77
2022-07-25T18:53:48.929Z,30.85
2022-07-25T18:56:16.829Z,31.09
2022-07-25T18:58:45.886Z,31.58
2022-07-25T19:01:13.436Z,31.52
2022-07-25T19:03:40.993Z,31.14
2022-07-25T19:06:09.462Z,31.42
2022-07-25T19:08:37.881Z,32.08
2022-07-25T19:11:04.943Z,32.29
2022-07-25T19:13:49.066Z,32.93
2022-07-25T19:16:20.053Z,33.12
2022-07-25T19:18:47.580Z,33.13
2022-07-25T19:21:15.594Z,33.09
2022-07-25T19:23:48.303Z,32.99
2022-07-25T19:26:18.104Z,32.85
2022-07-25T19:28:45.401Z,32.78
2022-07-25T19:31:14.892Z,32.78
2022-07-25T19:33:42.254Z,32.79
2022-07-25T19:36:10.777Z,32.71
2022-07-25T19:38:37.990Z,32.47
2022-07-25T19:41:05.338Z,32.28
2022-07-25T19:43:33.165Z,32.27
2022-07-25T19:46:00.526Z,31.92
2022-07-25T19:48:27.523Z,31.80
2022-07-25T19:50:55.211Z,32.04
2022-07-25T19:53:28.083Z,32.36
2022-07-25T19:55:56.210Z,32.82
2022-07-25T19:58:23.266Z,33.24
2022-07-25T20:00:50.890Z,34.22
2022-07-25T20:03:23.104Z,34.60
2022-07-25T20:05:51.307Z,34.85
2022-07-25T20:08:19.980Z,34.58
2022-07-25T20:10:48.410Z,34.47
2022-07-25T20:13:15.529Z,35.10
2022-07-25T20:15:43.572Z,35.71
2022-07-25T20:18:12.916Z,36.06
2022-07-25T20:20:44.987Z,36.46
2022-07-25T20:23:12.036Z,37.15
2022-07-25T20:25:40.802Z,37.30
2022-07-25T20:28:08.371Z,37.47
2022-07-25T20:30:35.774Z,38.00
2022-07-25T20:33:05.288Z,37.91
2022-07-25T20:35:39.082Z,38.10
2022-07-25T20:38:09.456Z,38.39
2022-07-25T20:40:49.783Z,39.15
2022-07-25T20:43:17.741Z,39.28
2022-07-25T20:45:45.051Z,40.06
2022-07-25T20:48:15.348Z,40.25
2022-07-25T20:50:43.918Z,40.29
2022-07-25T20:53:11.279Z,40.88
2022-07-25T20:55:38.408Z,41.10
2022-07-25T20:58:06.433Z,41.22
2022-07-25T21:00:33.504Z,41.55
2022-07-25T21:03:02.308Z,41.87
2022-07-25T21:05:29.870Z,41.63
2022-07-25T21:07:57.263Z,41.60
2022-07-25T21:10:24.892Z,41.69
2022-07-25T21:12:53.213Z,41.50
2022-07-25T21:15:20.220Z,42.12
2022-07-25T21:17:47.523Z,42.31
2022-07-25T21:20:15.892Z,42.62
2022-07-25T21:22:44.515Z,42.66
2022-07-25T21:25:11.660Z,42.97
2022-07-25T21:27:40.081Z,42.80
2022-07-25T21:30:09.338Z,43.17
2022-07-25T21:32:36.855Z,43.25
2022-07-25T21:35:05.845Z,43.46
2022-07-25T21:37:34.757Z,43.66
2022-07-25T21:40:01.998Z,43.89
2022-07-25T21:42:30.529Z,44.05
2022-07-25T21:44:57.527Z,44.16
2022-07-25T21:47:24.899Z,44.47
2022-07-25T21:50:10.350Z,44.44
2022-07-25T21:52:40.318Z,44.69
2022-07-25T21:55:08.158Z,44.01
2022-07-25T21:57:35.833Z,43.69
2022-07-25T22:00:06.907Z,43.87
2022-07-25T22:02:43.728Z,43.65
2022-07-25T22:05:15.232Z,43.53
2022-07-25T22:07:43.766Z,43.51
2022-07-25T22:10:13.416Z,43.71
2022-07-25T22:12:41.849Z,43.64
2022-07-25T22:15:12.235Z,43.83
2022-07-25T22:17:49.068Z,44.04
2022-07-25T22:20:19.616Z,43.76
2022-07-25T22:22:48.379Z,44.02
2022-07-25T22:25:17.058Z,44.10
2022-07-25T22:27:44.624Z,44.48
2022-07-25T22:30:18.441Z,44.68
2022-07-25T22:32:50.435Z,44.86
2022-07-25T22:35:18.439Z,44.68
2022-07-25T22:37:45.992Z,44.56
2022-07-25T22:40:15.184Z,44.86
2022-07-25T22:42:42.172Z,45.09
2022-07-25T22:45:10.095Z,44.80
2022-07-25T22:47:37.724Z,44.90
2022-07-25T22:50:06.129Z,44.86
2022-07-25T22:52:35.684Z,44.80
2022-07-25T22:55:03.469Z,45.13
2022-07-25T22:57:30.430Z,45.46
2022-07-25T23:00:08.508Z,44.98
2022-07-25T23:02:36.390Z,45.03
2022-07-25T23:05:04.500Z,45.01
2022-07-25T23:07:32.091Z,45.15
2022-07-25T23:09:59.404Z,45.30
2022-07-25T23:12:27.095Z,45.60
2022-07-25T23:14:56.168Z,45.53
2022-07-25T23:17:24.816Z,45.56
2022-07-25T23:19:53.344Z,45.76
2022-07-25T23:22:23.747Z,45.80
2022-07-25T23:24:51.144Z,45.50
2022-07-25T23:27:18.308Z,45.78
2022-07-25T23:29:48.198Z,45.96
2022-07-25T23:32:15.249Z,45.92
2022-07-25T23:34:43.056Z,45.84
2022-07-25T23:37:10.446Z,45.76
2022-07-25T23:39:37.772Z,45.30
2022-07-25T23:42:04.874Z,44.84
2022-07-25T23:44:33.607Z,45.42
2022-07-25T23:47:04.030Z,45.81
2022-07-25T23:49:35.000Z,45.91
2022-07-25T23:52:02.335Z,45.95
2022-07-25T23:54:29.888Z,46.16
2022-07-25T23:56:56.945Z,46.13
2022-07-25T23:59:24.783Z,45.85
